createdAt,value
2019-05-03T00:00:51.917Z,77.30
2019-05-03T00:03:22.500Z,77.50
2019-05-03T00:05:54.494Z,77.90
2019-05-03T00:08:23.770Z,77.90
2019-05-03T00:10:53.376Z,78.10
2019-05-03T00:13:22.952Z,78.50
2019-05-03T00:16:02.592Z,78.80
2019-05-03T00:18:32.808Z,79.10
2019-05-03T00:21:02.393Z,78.90
2019-05-03T00:23:32.440Z,79.70
2019-05-03T00:26:02.670Z,79.20
2019-05-03T00:28:32.489Z,79.00
2019-05-03T00:31:03.588Z,78.70
2019-05-03T00:33:33.008Z,78.80
2019-05-03T00:36:33.503Z,79.30
2019-05-03T00:39:17.075Z,78.90
2019-05-03T00:41:49.778Z,79.00
2019-05-03T00:44:19.417Z,78.70
2019-05-03T00:46:48.857Z,78.80
2019-05-03T00:49:18.397Z,78.30
2019-05-03T00:51:47.838Z,78.30
2019-05-03T00:54:17.073Z,78.90
2019-05-03T00:56:46.449Z,78.60
2019-05-03T00:59:15.861Z,78.20
2019-05-03T01:01:45.518Z,78.40
2019-05-03T01:04:15.041Z,78.10
2019-05-03T01:06:52.722Z,77.90
2019-05-03T01:09:23.523Z,77.80
2019-05-03T01:11:53.128Z,78.00
2019-05-03T01:14:22.689Z,78.30
2019-05-03T01:16:52.312Z,77.30
2019-05-03T01:19:22.748Z,77.10
2019-05-03T01:21:52.428Z,77.40
2019-05-03T01:24:21.868Z,77.30
2019-05-03T01:26:52.588Z,78.00
2019-05-03T01:29:24.730Z,77.90
2019-05-03T01:31:54.224Z,77.80
2019-05-03T01:34:23.543Z,77.00
2019-05-03T01:36:53.493Z,77.80
2019-05-03T01:39:23.002Z,77.00
2019-05-03T01:41:52.455Z,77.30
2019-05-03T01:44:22.069Z,77.60
2019-05-03T01:46:53.278Z,77.40
2019-05-03T01:49:32.088Z,77.40
2019-05-03T01:52:18.820Z,77.10
2019-05-03T01:54:48.336Z,76.80
2019-05-03T01:57:17.811Z,76.70
2019-05-03T01:59:51.950Z,76.60
2019-05-03T02:02:54.793Z,76.40
2019-05-03T02:05:36.390Z,76.00
2019-05-03T02:08:05.922Z,76.00
2019-05-03T02:10:35.319Z,76.20
2019-05-03T02:13:05.245Z,75.40
2019-05-03T02:15:34.610Z,75.20
2019-05-03T02:18:04.080Z,75.50
2019-05-03T02:20:33.640Z,75.40
2019-05-03T02:23:03.150Z,74.80
2019-05-03T02:25:32.718Z,74.40
2019-05-03T02:28:02.159Z,74.70
2019-05-03T02:30:33.267Z,74.20
2019-05-03T02:33:04.084Z,74.10
2019-05-03T02:35:33.621Z,74.70
2019-05-03T02:38:03.734Z,74.60
2019-05-03T02:40:33.994Z,75.00
2019-05-03T02:43:16.651Z,75.40
2019-05-03T02:46:06.035Z,75.90
2019-05-03T02:48:41.584Z,76.20
2019-05-03T02:51:11.042Z,76.40
2019-05-03T02:53:40.424Z,76.70
2019-05-03T02:56:17.849Z,77.10
2019-05-03T03:01:55.736Z,77.00
2019-05-03T03:04:26.006Z,77.20
2019-05-03T03:06:59.393Z,77.20
2019-05-03T03:09:35.991Z,77.40
2019-05-03T03:12:06.159Z,77.40
2019-05-03T03:14:36.490Z,77.00
2019-05-03T03:17:07.128Z,76.90
2019-05-03T03:19:38.618Z,77.00
2019-05-03T03:22:29.784Z,76.90
2019-05-03T03:25:00.974Z,76.60
2019-05-03T03:30:57.608Z,74.80
2019-05-03T03:33:49.264Z,74.90
2019-05-03T03:36:07.100Z,75.20
2019-05-03T03:41:45.363Z,73.70
2019-05-03T03:44:28.363Z,73.10
2019-05-03T03:46:59.137Z,72.90
2019-05-03T03:49:29.891Z,72.40
2019-05-03T03:52:06.174Z,71.40
2019-05-03T03:54:36.423Z,70.30
2019-05-03T03:57:08.150Z,70.20
2019-05-03T03:59:56.336Z,71.40
2019-05-03T04:02:47.697Z,71.20
2019-05-03T04:05:19.867Z,69.30
2019-05-03T04:07:50.828Z,69.60
2019-05-03T04:10:20.292Z,69.20
2019-05-03T04:12:50.936Z,68.70
2019-05-03T04:15:50.187Z,69.50
2019-05-03T04:19:06.151Z,70.20
2019-05-03T04:21:51.136Z,70.20
2019-05-03T04:24:39.715Z,68.00
2019-05-03T04:27:23.466Z,68.60
2019-05-03T04:39:25.479Z,70.00
2019-05-03T04:41:35.761Z,69.10
2019-05-03T04:46:59.319Z,69.10
2019-05-03T04:52:22.097Z,69.10
2019-05-03T04:55:27.035Z,68.90
2019-05-03T04:57:50.043Z,68.70
2019-05-03T05:00:27.745Z,69.10
2019-05-03T05:03:31.647Z,69.30
2019-05-03T05:06:15.438Z,68.60
2019-05-03T05:08:46.018Z,68.20
2019-05-03T05:14:10.422Z,67.10
2019-05-03T05:16:46.236Z,67.00
2019-05-03T05:19:37.841Z,66.60
2019-05-03T05:22:30.664Z,65.70
2019-05-03T05:25:02.063Z,66.10
2019-05-03T05:27:57.258Z,65.30
2019-05-03T05:30:29.676Z,64.30
2019-05-03T05:33:01.979Z,64.50
2019-05-03T05:35:31.445Z,65.10
2019-05-03T05:38:26.201Z,63.40
2019-05-03T05:40:55.617Z,63.80
2019-05-03T05:43:25.497Z,63.40
2019-05-03T05:49:26.591Z,63.60
2019-05-03T05:51:35.365Z,63.50
2019-05-03T06:03:05.930Z,61.50
2019-05-03T06:05:50.691Z,61.60
2019-05-03T06:11:41.667Z,60.00
2019-05-03T06:17:34.852Z,58.20
2019-05-03T06:26:38.599Z,57.20
2019-05-03T06:29:08.196Z,56.40
2019-05-03T06:31:56.650Z,56.80
2019-05-03T06:37:48.969Z,55.40
2019-05-03T06:40:31.148Z,55.50
2019-05-03T06:43:24.491Z,54.60
2019-05-03T06:45:50.439Z,54.80
2019-05-03T06:48:22.357Z,55.60
2019-05-03T06:51:12.588Z,55.40
2019-05-03T06:53:52.191Z,55.40
2019-05-03T06:56:37.836Z,55.10
2019-05-03T06:59:51.052Z,54.70
2019-05-03T07:05:49.832Z,53.40
2019-05-03T07:11:57.171Z,53.30
2019-05-03T07:15:25.168Z,52.70
2019-05-03T07:27:35.018Z,53.10
2019-05-03T07:30:11.422Z,53.40
2019-05-03T07:33:18.361Z,53.90
2019-05-03T07:36:15.398Z,52.90
2019-05-03T07:39:07.766Z,55.30
2019-05-03T07:41:38.245Z,53.80
2019-05-03T07:45:00.228Z,54.40
2019-05-03T09:11:36.855Z,51.90
2019-05-03T09:14:24.497Z,51.70
2019-05-03T09:20:06.102Z,52.80
2019-05-03T09:47:07.880Z,54.90
2019-05-03T11:18:36.897Z,58.60
2019-05-03T11:24:27.139Z,58.90
2019-05-03T11:27:32.218Z,59.00
2019-05-03T11:33:15.152Z,59.10
2019-05-03T11:39:40.683Z,59.20
2019-05-03T11:42:11.537Z,59.20
2019-05-03T11:44:40.759Z,60.30
2019-05-03T11:47:10.245Z,59.00
2019-05-03T11:49:39.496Z,59.60
2019-05-03T11:52:09.224Z,60.20
2019-05-03T11:54:41.370Z,58.30
2019-05-03T11:57:21.072Z,59.90
2019-05-03T12:01:11.887Z,59.40
2019-05-03T12:07:40.223Z,60.20
2019-05-03T12:10:28.262Z,59.80
2019-05-03T12:13:12.707Z,60.40
2019-05-03T12:15:59.344Z,61.40
2019-05-03T12:19:17.138Z,62.30
2019-05-03T12:21:43.697Z,61.20
2019-05-03T12:24:15.697Z,62.50
2019-05-03T12:26:46.787Z,62.70
2019-05-03T12:29:15.303Z,63.40
2019-05-03T12:31:45.576Z,61.90
2019-05-03T12:34:15.921Z,61.00
2019-05-03T12:36:45.509Z,61.40
2019-05-03T12:39:24.161Z,62.90
2019-05-03T12:41:48.142Z,62.30
2019-05-03T12:44:16.723Z,60.90
2019-05-03T12:46:45.927Z,62.90
2019-05-03T12:49:15.639Z,63.00
2019-05-03T12:51:45.297Z,62.10
2019-05-03T12:54:15.203Z,61.20
2019-05-03T12:56:45.329Z,61.90
2019-05-03T12:59:44.958Z,62.00
2019-05-03T13:02:21.016Z,63.00
2019-05-03T13:04:52.040Z,62.50
2019-05-03T13:07:34.689Z,61.90
2019-05-03T13:10:05.285Z,62.10
2019-05-03T13:12:34.826Z,62.60
2019-05-03T13:15:05.029Z,63.60
2019-05-03T13:17:37.645Z,63.60
2019-05-03T13:20:09.013Z,63.90
2019-05-03T13:22:38.079Z,64.80
2019-05-03T13:25:08.413Z,65.80
2019-05-03T13:27:37.555Z,66.00
2019-05-03T13:30:07.687Z,67.60
2019-05-03T13:32:37.117Z,67.20
2019-05-03T13:35:08.164Z,66.20
2019-05-03T13:37:37.303Z,65.50
2019-05-03T13:40:09.027Z,63.90
2019-05-03T13:42:37.977Z,66.40
2019-05-03T13:45:07.361Z,65.90
2019-05-03T13:47:44.851Z,63.90
2019-05-03T13:50:15.853Z,65.00
2019-05-03T13:52:47.956Z,63.60
2019-05-03T13:55:17.586Z,63.30
2019-05-03T13:57:50.547Z,64.10
2019-05-03T14:00:19.724Z,63.60
2019-05-03T14:02:56.356Z,60.20
2019-05-03T14:05:27.360Z,60.70
2019-05-03T14:08:01.270Z,59.90
2019-05-03T14:10:35.724Z,60.60
2019-05-03T14:13:05.611Z,63.00
2019-05-03T14:15:35.032Z,60.20
2019-05-03T14:18:06.013Z,60.30
2019-05-03T14:21:00.134Z,60.70
2019-05-03T14:23:29.299Z,60.40
2019-05-03T14:25:58.556Z,61.00
2019-05-03T14:28:31.715Z,63.40
2019-05-03T14:31:01.741Z,60.60
2019-05-03T14:33:30.827Z,62.90
2019-05-03T14:36:00.020Z,61.50
2019-05-03T14:38:28.922Z,60.30
2019-05-03T14:40:58.154Z,59.90
2019-05-03T14:43:27.086Z,59.30
2019-05-03T14:45:56.166Z,61.40
2019-05-03T14:48:25.055Z,59.70
2019-05-03T14:50:54.896Z,59.90
2019-05-03T14:53:25.429Z,61.20
2019-05-03T14:56:18.716Z,61.20
2019-05-03T14:59:09.600Z,61.50
2019-05-03T15:01:44.517Z,62.50
2019-05-03T15:04:15.151Z,62.80
2019-05-03T15:06:46.012Z,63.30
2019-05-03T15:09:18.617Z,62.90
2019-05-03T15:11:46.250Z,61.80
2019-05-03T15:14:15.305Z,59.80
2019-05-03T15:16:45.065Z,58.70
2019-05-03T15:19:14.796Z,59.20
2019-05-03T15:21:45.284Z,59.00
2019-05-03T15:24:14.596Z,60.30
2019-05-03T15:26:44.723Z,60.90
2019-05-03T15:29:15.590Z,61.70
2019-05-03T15:31:44.976Z,60.70
2019-05-03T15:34:15.246Z,60.10
2019-05-03T15:36:45.138Z,59.20
2019-05-03T15:39:15.418Z,60.00
2019-05-03T15:41:44.954Z,62.00
2019-05-03T15:44:29.034Z,61.60
2019-05-03T15:47:10.311Z,60.00
2019-05-03T15:49:39.810Z,61.40
2019-05-03T15:52:09.031Z,61.70
2019-05-03T15:54:38.108Z,61.30
2019-05-03T15:57:07.360Z,60.60
2019-05-03T15:59:36.817Z,62.30
2019-05-03T16:02:06.183Z,60.70
2019-05-03T16:04:35.686Z,60.80
2019-05-03T16:07:05.417Z,61.30
2019-05-03T16:09:35.215Z,60.30
2019-05-03T16:12:05.114Z,61.00
2019-05-03T16:14:35.035Z,61.70
2019-05-03T16:17:04.883Z,62.00
2019-05-03T16:19:35.420Z,62.80
2019-05-03T16:22:04.943Z,62.20
2019-05-03T16:24:35.666Z,61.40
2019-05-03T16:27:20.403Z,61.60
2019-05-03T16:29:49.702Z,61.90
2019-05-03T16:32:19.187Z,61.60
2019-05-03T16:34:48.953Z,60.10
2019-05-03T16:37:18.161Z,60.90
2019-05-03T16:39:48.653Z,62.10
2019-05-03T16:42:18.037Z,61.70
2019-05-03T16:44:47.672Z,61.90
2019-05-03T16:47:17.045Z,59.80
2019-05-03T16:49:46.387Z,59.30
2019-05-03T16:52:17.460Z,59.10
2019-05-03T16:54:46.423Z,59.20
2019-05-03T16:57:17.509Z,59.70
2019-05-03T16:59:46.788Z,61.70
2019-05-03T17:02:17.426Z,61.00
2019-05-03T17:05:04.753Z,61.40
2019-05-03T17:11:51.860Z,60.90
2019-05-03T17:13:14.691Z,61.20
2019-05-03T17:15:44.490Z,61.20
2019-05-03T17:18:14.728Z,62.00
2019-05-03T17:20:45.328Z,62.00
2019-05-03T17:23:15.482Z,61.20
2019-05-03T17:25:44.893Z,62.30
2019-05-03T17:28:15.652Z,63.00
2019-05-03T17:30:45.229Z,63.20
2019-05-03T17:33:16.094Z,64.60
2019-05-03T17:35:45.427Z,66.20
2019-05-03T17:38:14.577Z,66.00
2019-05-03T17:40:54.830Z,65.70
2019-05-03T17:43:30.100Z,66.40
2019-05-03T17:45:59.898Z,67.20
2019-05-03T17:48:29.095Z,67.50
2019-05-03T17:50:58.356Z,68.20
2019-05-03T17:53:46.501Z,69.50
2019-05-03T17:56:50.282Z,70.20
2019-05-03T17:59:39.288Z,70.20
2019-05-03T18:02:39.713Z,72.10
2019-05-03T18:05:27.906Z,71.90
2019-05-03T18:08:14.922Z,72.10
2019-05-03T18:10:48.486Z,71.80
2019-05-03T18:13:17.686Z,72.10
2019-05-03T18:15:47.028Z,73.00
2019-05-03T18:18:16.578Z,71.60
2019-05-03T18:20:45.663Z,71.00
2019-05-03T18:23:15.421Z,71.90
2019-05-03T18:25:44.836Z,72.30
2019-05-03T18:28:14.811Z,71.90
2019-05-03T18:30:45.441Z,73.10
2019-05-03T18:33:15.405Z,73.70
2019-05-03T18:35:44.784Z,73.50
2019-05-03T18:38:14.850Z,74.30
2019-05-03T18:40:44.857Z,73.60
2019-05-03T18:43:42.254Z,73.80
2019-05-03T18:46:25.082Z,74.80
2019-05-03T18:48:55.165Z,75.00
2019-05-03T18:51:25.553Z,75.20
2019-05-03T18:53:56.838Z,76.60
2019-05-03T18:56:26.165Z,75.90
2019-05-03T18:58:55.457Z,76.50
2019-05-03T19:01:25.298Z,77.70
2019-05-03T19:03:59.189Z,74.60
2019-05-03T19:06:28.793Z,75.30
2019-05-03T19:09:20.087Z,77.00
2019-05-03T19:12:04.843Z,76.50
2019-05-03T19:14:34.276Z,76.70
2019-05-03T19:17:16.619Z,76.90
2019-05-03T19:19:47.041Z,76.20
2019-05-03T19:22:16.247Z,77.20
2019-05-03T19:24:47.065Z,77.10
2019-05-03T19:27:16.752Z,77.40
2019-05-03T19:29:46.187Z,77.50
2019-05-03T19:32:15.383Z,78.20
2019-05-03T19:34:50.796Z,77.20
2019-05-03T19:37:15.771Z,77.10
2019-05-03T19:39:44.788Z,78.10
2019-05-03T19:42:13.768Z,79.10
2019-05-03T19:44:42.852Z,81.00
2019-05-03T19:47:11.945Z,80.50
2019-05-03T19:49:41.039Z,80.10
2019-05-03T19:52:11.925Z,80.90
2019-05-03T19:54:41.236Z,81.10
2019-05-03T19:57:12.099Z,81.50
2019-05-03T20:00:09.346Z,80.40
2019-05-03T20:02:57.514Z,80.80
2019-05-03T20:05:34.469Z,81.40
2019-05-03T20:08:32.120Z,81.00
2019-05-03T20:11:19.463Z,80.90
2019-05-03T20:13:48.481Z,80.70
2019-05-03T20:16:18.417Z,82.80
2019-05-03T20:18:47.421Z,81.60
2019-05-03T20:21:16.407Z,82.00
2019-05-03T20:23:47.138Z,81.80
2019-05-03T20:26:16.271Z,82.90
2019-05-03T20:28:45.339Z,82.00
2019-05-03T20:31:14.521Z,83.10
2019-05-03T20:33:45.572Z,83.10
2019-05-03T20:36:14.298Z,84.30
2019-05-03T20:38:44.526Z,83.40
2019-05-03T20:41:14.835Z,83.20
2019-05-03T20:43:52.304Z,83.60
2019-05-03T20:46:44.811Z,84.30
2019-05-03T20:49:15.057Z,83.50
2019-05-03T20:51:45.024Z,83.70
2019-05-03T20:54:15.308Z,83.70
2019-05-03T20:56:46.100Z,84.20
2019-05-03T20:59:15.129Z,83.50
2019-05-03T21:01:45.290Z,83.50
2019-05-03T21:04:15.349Z,83.60
2019-05-03T21:06:45.564Z,83.20
2019-05-03T21:09:15.182Z,82.60
2019-05-03T21:11:44.831Z,81.90
2019-05-03T21:14:15.547Z,82.40
2019-05-03T21:16:56.939Z,82.50
2019-05-03T21:19:57.345Z,81.70
2019-05-03T21:22:39.246Z,82.60
2019-05-03T21:25:16.678Z,82.50
2019-05-03T21:27:45.695Z,82.80
2019-05-03T21:30:15.124Z,82.00
2019-05-03T21:32:44.481Z,81.90
2019-05-03T21:35:14.796Z,81.30
2019-05-03T21:37:45.408Z,82.40
2019-05-03T21:40:15.626Z,81.70
2019-05-03T21:42:45.192Z,82.50
2019-05-03T21:45:16.221Z,81.40
2019-05-03T21:47:52.012Z,81.70
2019-05-03T21:50:21.866Z,81.00
2019-05-03T21:52:50.989Z,82.40
2019-05-03T21:55:20.098Z,81.10
2019-05-03T21:57:49.160Z,80.90
2019-05-03T22:00:18.931Z,80.40
2019-05-03T22:02:48.036Z,80.70
2019-05-03T22:05:17.080Z,79.30
2019-05-03T22:07:46.161Z,80.30
2019-05-03T22:10:15.391Z,80.80
2019-05-03T22:12:44.563Z,80.20
2019-05-03T22:15:28.167Z,80.70
2019-05-03T22:18:05.129Z,78.10
2019-05-03T22:20:39.742Z,79.40
2019-05-03T22:23:38.446Z,80.50
2019-05-03T22:26:08.098Z,81.00
2019-05-03T22:28:37.276Z,78.80
2019-05-03T22:31:06.848Z,78.40
2019-05-03T22:33:36.294Z,79.70
2019-05-03T22:36:08.649Z,74.50
2019-05-03T22:38:38.289Z,76.10
2019-05-03T22:41:06.698Z,75.30
2019-05-03T22:43:35.736Z,76.40
2019-05-03T22:46:05.340Z,76.10
2019-05-03T22:48:35.791Z,77.50
2019-05-03T22:51:04.892Z,79.90
2019-05-03T22:53:34.403Z,80.50
2019-05-03T22:56:04.886Z,80.20
2019-05-03T22:58:35.479Z,80.90
2019-05-03T23:01:04.648Z,80.50
2019-05-03T23:03:42.232Z,79.50
2019-05-03T23:06:20.308Z,79.50
2019-05-03T23:08:42.254Z,79.10
2019-05-03T23:11:11.028Z,78.70
2019-05-03T23:13:40.086Z,80.70
2019-05-03T23:16:08.853Z,81.10
2019-05-03T23:18:37.639Z,81.70
2019-05-03T23:21:11.813Z,79.70
2019-05-03T23:23:54.864Z,79.00
2019-05-03T23:26:25.449Z,81.20
2019-05-03T23:28:55.145Z,78.50
2019-05-03T23:31:25.165Z,79.10
2019-05-03T23:33:54.725Z,80.30
2019-05-03T23:36:33.116Z,79.70
2019-05-03T23:38:54.690Z,74.70
2019-05-03T23:41:24.582Z,77.70
2019-05-03T23:43:54.181Z,79.30
2019-05-03T23:46:29.084Z,78.20
2019-05-03T23:48:58.059Z,79.20
2019-05-03T23:51:55.235Z,78.40
2019-05-03T23:54:24.718Z,77.60
2019-05-03T23:56:54.726Z,79.50
2019-05-03T23:59:24.071Z,78.20
